sensor_id;sensor_type;location;lat;lon;timestamp;P1;durP1;ratioP1;P2;durP2;ratioP2
35364;SDS011;21464;48.112;11.530;2022-12-26T00:00:35;1.97;;;1.87;;
35364;SDS011;21464;48.112;11.530;2022-12-26T00:03:01;2.00;;;1.80;;
35364;SDS011;21464;48.112;11.530;2022-12-26T00:05:27;1.80;;;1.60;;
35364;SDS011;21464;48.112;11.530;2022-12-26T00:07:53;2.80;;;1.80;;
35364;SDS011;21464;48.112;11.530;2022-12-26T00:10:19;1.90;;;1.80;;
35364;SDS011;21464;48.112;11.530;2022-12-26T00:12:45;1.83;;;1.50;;
35364;SDS011;21464;48.112;11.530;2022-12-26T00:15:10;1.43;;;1.33;;
35364;SDS011;21464;48.112;11.530;2022-12-26T00:17:36;1.70;;;1.60;;
35364;SDS011;21464;48.112;11.530;2022-12-26T00:20:03;1.57;;;1.47;;
35364;SDS011;21464;48.112;11.530;2022-12-26T00:22:29;1.80;;;1.70;;
35364;SDS011;21464;48.112;11.530;2022-12-26T00:24:55;2.00;;;1.80;;
35364;SDS011;21464;48.112;11.530;2022-12-26T00:27:20;2.00;;;1.90;;
35364;SDS011;21464;48.112;11.530;2022-12-26T00:29:47;2.10;;;1.90;;
35364;SDS011;21464;48.112;11.530;2022-12-26T00:32:12;2.00;;;1.83;;
35364;SDS011;21464;48.112;11.530;2022-12-26T00:34:39;2.08;;;1.95;;
35364;SDS011;21464;48.112;11.530;2022-12-26T00:37:05;2.43;;;1.70;;
35364;SDS011;21464;48.112;11.530;2022-12-26T00:39:31;2.00;;;1.73;;
35364;SDS011;21464;48.112;11.530;2022-12-26T00:41:56;1.90;;;1.70;;
35364;SDS011;21464;48.112;11.530;2022-12-26T00:44:22;2.87;;;2.10;;
35364;SDS011;21464;48.112;11.530;2022-12-26T00:46:48;2.23;;;1.87;;
35364;SDS011;21464;48.112;11.530;2022-12-26T00:49:14;1.90;;;1.80;;
35364;SDS011;21464;48.112;11.530;2022-12-26T00:51:40;1.90;;;1.80;;
35364;SDS011;21464;48.112;11.530;2022-12-26T00:54:06;2.40;;;1.70;;
35364;SDS011;21464;48.112;11.530;2022-12-26T00:56:32;1.80;;;1.70;;
35364;SDS011;21464;48.112;11.530;2022-12-26T00:58:58;1.90;;;1.80;;
35364;SDS011;21464;48.112;11.530;2022-12-26T01:01:23;1.80;;;1.70;;
35364;SDS011;21464;48.112;11.530;2022-12-26T01:03:49;1.73;;;1.63;;
35364;SDS011;21464;48.112;11.530;2022-12-26T01:06:15;1.60;;;1.50;;
35364;SDS011;21464;48.112;11.530;2022-12-26T01:08:41;1.57;;;1.47;;
35364;SDS011;21464;48.112;11.530;2022-12-26T01:11:09;1.83;;;1.73;;
35364;SDS011;21464;48.112;11.530;2022-12-26T01:13:35;2.13;;;1.93;;
35364;SDS011;21464;48.112;11.530;2022-12-26T01:16:01;1.50;;;1.40;;
35364;SDS011;21464;48.112;11.530;2022-12-26T01:18:27;1.80;;;1.70;;
35364;SDS011;21464;48.112;11.530;2022-12-26T01:21:01;1.70;;;1.60;;
35364;SDS011;21464;48.112;11.530;2022-12-26T01:23:27;1.60;;;1.50;;
35364;SDS011;21464;48.112;11.530;2022-12-26T01:25:53;1.70;;;1.60;;
35364;SDS011;21464;48.112;11.530;2022-12-26T01:28:19;1.63;;;1.53;;
35364;SDS011;21464;48.112;11.530;2022-12-26T01:30:45;1.63;;;1.53;;
35364;SDS011;21464;48.112;11.530;2022-12-26T01:33:12;1.67;;;1.57;;
35364;SDS011;21464;48.112;11.530;2022-12-26T01:35:37;1.67;;;1.57;;
35364;SDS011;21464;48.112;11.530;2022-12-26T01:38:03;1.70;;;1.60;;
35364;SDS011;21464;48.112;11.530;2022-12-26T01:40:29;1.87;;;1.67;;
35364;SDS011;21464;48.112;11.530;2022-12-26T01:42:55;1.70;;;1.60;;
35364;SDS011;21464;48.112;11.530;2022-12-26T01:48:04;1.40;;;1.30;;
35364;SDS011;21464;48.112;11.530;2022-12-26T01:50:44;1.70;;;1.60;;
35364;SDS011;21464;48.112;11.530;2022-12-26T01:53:19;1.50;;;1.33;;
35364;SDS011;21464;48.112;11.530;2022-12-26T01:55:48;1.43;;;1.33;;
35364;SDS011;21464;48.112;11.530;2022-12-26T01:58:18;1.20;;;1.20;;
35364;SDS011;21464;48.112;11.530;2022-12-26T02:00:45;1.40;;;1.30;;
35364;SDS011;21464;48.112;11.530;2022-12-26T02:03:11;1.40;;;1.30;;
35364;SDS011;21464;48.112;11.530;2022-12-26T02:05:56;1.37;;;1.27;;
35364;SDS011;21464;48.112;11.530;2022-12-26T02:08:26;1.27;;;1.17;;
35364;SDS011;21464;48.112;11.530;2022-12-26T02:13:26;1.43;;;1.33;;
35364;SDS011;21464;48.112;11.530;2022-12-26T02:15:57;1.83;;;1.40;;
35364;SDS011;21464;48.112;11.530;2022-12-26T02:18:23;1.50;;;1.40;;
35364;SDS011;21464;48.112;11.530;2022-12-26T02:23:33;1.50;;;1.30;;
35364;SDS011;21464;48.112;11.530;2022-12-26T02:29:14;1.90;;;1.50;;
35364;SDS011;21464;48.112;11.530;2022-12-26T02:31:24;1.53;;;1.47;;
35364;SDS011;21464;48.112;11.530;2022-12-26T02:52:04;1.30;;;1.20;;
35364;SDS011;21464;48.112;11.530;2022-12-26T02:54:57;1.50;;;1.40;;
35364;SDS011;21464;48.112;11.530;2022-12-26T02:57:56;2.20;;;1.20;;
35364;SDS011;21464;48.112;11.530;2022-12-26T03:00:41;1.40;;;1.30;;
35364;SDS011;21464;48.112;11.530;2022-12-26T03:03:27;1.47;;;1.37;;
35364;SDS011;21464;48.112;11.530;2022-12-26T03:09:05;1.70;;;1.30;;
35364;SDS011;21464;48.112;11.530;2022-12-26T03:11:51;1.30;;;1.20;;
35364;SDS011;21464;48.112;11.530;2022-12-26T03:14:54;2.30;;;1.40;;
35364;SDS011;21464;48.112;11.530;2022-12-26T03:20:38;1.10;;;1.00;;
35364;SDS011;21464;48.112;11.530;2022-12-26T03:22:43;1.40;;;1.23;;
35364;SDS011;21464;48.112;11.530;2022-12-26T03:25:12;1.10;;;1.10;;
35364;SDS011;21464;48.112;11.530;2022-12-26T03:27:57;1.10;;;1.10;;
35364;SDS011;21464;48.112;11.530;2022-12-26T03:30:24;1.27;;;1.27;;
35364;SDS011;21464;48.112;11.530;2022-12-26T03:33:08;1.10;;;1.10;;
35364;SDS011;21464;48.112;11.530;2022-12-26T03:35:54;1.30;;;1.30;;
35364;SDS011;21464;48.112;11.530;2022-12-26T03:38:21;1.37;;;1.27;;
35364;SDS011;21464;48.112;11.530;2022-12-26T03:40:54;1.53;;;1.20;;
35364;SDS011;21464;48.112;11.530;2022-12-26T03:43:45;1.87;;;1.20;;
35364;SDS011;21464;48.112;11.530;2022-12-26T03:49:22;1.20;;;1.10;;
35364;SDS011;21464;48.112;11.530;2022-12-26T03:52:09;1.10;;;1.10;;
35364;SDS011;21464;48.112;11.530;2022-12-26T03:55:05;1.63;;;1.50;;
35364;SDS011;21464;48.112;11.530;2022-12-26T03:57:58;1.07;;;1.07;;
35364;SDS011;21464;48.112;11.530;2022-12-26T04:00:45;1.10;;;1.10;;
35364;SDS011;21464;48.112;11.530;2022-12-26T04:03:31;1.20;;;1.20;;
35364;SDS011;21464;48.112;11.530;2022-12-26T04:06:17;1.20;;;1.10;;
35364;SDS011;21464;48.112;11.530;2022-12-26T04:09:08;1.10;;;1.10;;
35364;SDS011;21464;48.112;11.530;2022-12-26T04:11:54;1.50;;;1.40;;
35364;SDS011;21464;48.112;11.530;2022-12-26T04:14:42;1.17;;;1.17;;
35364;SDS011;21464;48.112;11.530;2022-12-26T04:17:35;1.30;;;1.20;;
35364;SDS011;21464;48.112;11.530;2022-12-26T04:22:52;1.13;;;1.10;;
35364;SDS011;21464;48.112;11.530;2022-12-26T04:25:40;1.17;;;1.13;;
35364;SDS011;21464;48.112;11.530;2022-12-26T04:28:27;1.00;;;1.00;;
35364;SDS011;21464;48.112;11.530;2022-12-26T04:31:28;1.40;;;1.30;;
35364;SDS011;21464;48.112;11.530;2022-12-26T04:37:20;1.13;;;1.13;;
35364;SDS011;21464;48.112;11.530;2022-12-26T04:40:06;1.30;;;1.20;;
35364;SDS011;21464;48.112;11.530;2022-12-26T04:42:51;1.10;;;1.10;;
35364;SDS011;21464;48.112;11.530;2022-12-26T04:45:36;1.00;;;1.00;;
35364;SDS011;21464;48.112;11.530;2022-12-26T04:48:04;1.00;;;1.00;;
35364;SDS011;21464;48.112;11.530;2022-12-26T04:50:51;1.30;;;1.20;;
35364;SDS011;21464;48.112;11.530;2022-12-26T04:53:18;1.00;;;1.00;;
35364;SDS011;21464;48.112;11.530;2022-12-26T04:55:44;1.57;;;1.47;;
35364;SDS011;21464;48.112;11.530;2022-12-26T04:58:10;1.30;;;1.20;;
35364;SDS011;21464;48.112;11.530;2022-12-26T05:00:36;1.30;;;1.20;;
35364;SDS011;21464;48.112;11.530;2022-12-26T05:03:02;1.10;;;1.10;;
35364;SDS011;21464;48.112;11.530;2022-12-26T05:05:47;1.43;;;1.33;;
35364;SDS011;21464;48.112;11.530;2022-12-26T05:11:17;0.97;;;0.90;;
35364;SDS011;21464;48.112;11.530;2022-12-26T05:13:43;1.50;;;1.40;;
35364;SDS011;21464;48.112;11.530;2022-12-26T05:16:09;1.50;;;1.40;;
35364;SDS011;21464;48.112;11.530;2022-12-26T05:19:11;1.23;;;1.23;;
35364;SDS011;21464;48.112;11.530;2022-12-26T05:21:56;23.70;;;14.93;;
35364;SDS011;21464;48.112;11.530;2022-12-26T05:24:41;9.27;;;6.97;;
35364;SDS011;21464;48.112;11.530;2022-12-26T05:27:37;10.53;;;6.87;;
35364;SDS011;21464;48.112;11.530;2022-12-26T05:30:22;4.90;;;2.90;;
35364;SDS011;21464;48.112;11.530;2022-12-26T05:32:48;2.97;;;2.60;;
35364;SDS011;21464;48.112;11.530;2022-12-26T05:35:32;3.50;;;2.47;;
35364;SDS011;21464;48.112;11.530;2022-12-26T05:37:58;1.70;;;1.60;;
35364;SDS011;21464;48.112;11.530;2022-12-26T05:40:24;2.50;;;2.23;;
35364;SDS011;21464;48.112;11.530;2022-12-26T05:42:50;2.80;;;2.13;;
35364;SDS011;21464;48.112;11.530;2022-12-26T05:45:17;2.07;;;1.97;;
35364;SDS011;21464;48.112;11.530;2022-12-26T05:47:43;1.83;;;1.57;;
35364;SDS011;21464;48.112;11.530;2022-12-26T05:50:09;2.10;;;1.90;;
35364;SDS011;21464;48.112;11.530;2022-12-26T05:52:34;3.23;;;2.63;;
35364;SDS011;21464;48.112;11.530;2022-12-26T05:55:00;1.60;;;1.50;;
35364;SDS011;21464;48.112;11.530;2022-12-26T05:57:26;1.60;;;1.50;;
35364;SDS011;21464;48.112;11.530;2022-12-26T05:59:52;1.80;;;1.70;;
35364;SDS011;21464;48.112;11.530;2022-12-26T06:02:18;1.70;;;1.53;;
35364;SDS011;21464;48.112;11.530;2022-12-26T06:04:44;1.47;;;1.37;;
35364;SDS011;21464;48.112;11.530;2022-12-26T06:07:10;1.35;;;1.30;;
35364;SDS011;21464;48.112;11.530;2022-12-26T06:09:36;1.47;;;1.23;;
35364;SDS011;21464;48.112;11.530;2022-12-26T06:12:02;1.50;;;1.40;;
35364;SDS011;21464;48.112;11.530;2022-12-26T06:14:28;1.63;;;1.53;;
35364;SDS011;21464;48.112;11.530;2022-12-26T06:16:54;1.50;;;1.40;;
35364;SDS011;21464;48.112;11.530;2022-12-26T06:19:19;1.40;;;1.30;;
35364;SDS011;21464;48.112;11.530;2022-12-26T06:21:45;1.50;;;1.40;;
35364;SDS011;21464;48.112;11.530;2022-12-26T06:24:11;1.40;;;1.30;;
35364;SDS011;21464;48.112;11.530;2022-12-26T06:26:38;1.60;;;1.50;;
35364;SDS011;21464;48.112;11.530;2022-12-26T06:29:05;1.60;;;1.50;;
35364;SDS011;21464;48.112;11.530;2022-12-26T06:31:31;1.70;;;1.60;;
35364;SDS011;21464;48.112;11.530;2022-12-26T06:33:57;1.60;;;1.50;;
35364;SDS011;21464;48.112;11.530;2022-12-26T06:36:23;1.53;;;1.43;;
35364;SDS011;21464;48.112;11.530;2022-12-26T06:38:49;2.23;;;1.90;;
35364;SDS011;21464;48.112;11.530;2022-12-26T06:41:17;1.40;;;1.40;;
35364;SDS011;21464;48.112;11.530;2022-12-26T06:43:43;1.67;;;1.57;;
35364;SDS011;21464;48.112;11.530;2022-12-26T06:46:11;2.23;;;1.70;;
35364;SDS011;21464;48.112;11.530;2022-12-26T06:48:37;2.40;;;1.70;;
35364;SDS011;21464;48.112;11.530;2022-12-26T06:51:06;1.90;;;1.80;;
35364;SDS011;21464;48.112;11.530;2022-12-26T06:53:33;2.37;;;1.70;;
35364;SDS011;21464;48.112;11.530;2022-12-26T06:56:06;2.70;;;1.80;;
35364;SDS011;21464;48.112;11.530;2022-12-26T06:58:32;1.80;;;1.60;;
35364;SDS011;21464;48.112;11.530;2022-12-26T07:01:08;3.23;;;1.77;;
35364;SDS011;21464;48.112;11.530;2022-12-26T07:03:35;1.67;;;1.57;;
35364;SDS011;21464;48.112;11.530;2022-12-26T07:06:04;1.87;;;1.77;;
35364;SDS011;21464;48.112;11.530;2022-12-26T07:08:30;2.00;;;1.50;;
35364;SDS011;21464;48.112;11.530;2022-12-26T07:10:56;1.40;;;1.30;;
35364;SDS011;21464;48.112;11.530;2022-12-26T07:13:22;1.53;;;1.40;;
35364;SDS011;21464;48.112;11.530;2022-12-26T07:15:48;1.87;;;1.73;;
35364;SDS011;21464;48.112;11.530;2022-12-26T07:18:14;2.10;;;1.40;;
35364;SDS011;21464;48.112;11.530;2022-12-26T07:20:40;1.50;;;1.40;;
35364;SDS011;21464;48.112;11.530;2022-12-26T07:23:06;1.40;;;1.30;;
35364;SDS011;21464;48.112;11.530;2022-12-26T07:25:32;1.33;;;1.27;;
35364;SDS011;21464;48.112;11.530;2022-12-26T07:27:58;1.50;;;1.40;;
35364;SDS011;21464;48.112;11.530;2022-12-26T07:30:25;1.50;;;1.40;;
35364;SDS011;21464;48.112;11.530;2022-12-26T07:32:51;1.30;;;1.30;;
35364;SDS011;21464;48.112;11.530;2022-12-26T07:35:17;1.20;;;1.20;;
35364;SDS011;21464;48.112;11.530;2022-12-26T07:37:43;1.63;;;1.30;;
35364;SDS011;21464;48.112;11.530;2022-12-26T07:40:09;1.37;;;1.30;;
35364;SDS011;21464;48.112;11.530;2022-12-26T07:42:35;1.27;;;1.17;;
35364;SDS011;21464;48.112;11.530;2022-12-26T07:45:02;1.47;;;1.30;;
35364;SDS011;21464;48.112;11.530;2022-12-26T07:47:28;1.23;;;1.00;;
35364;SDS011;21464;48.112;11.530;2022-12-26T07:49:53;1.30;;;1.20;;
35364;SDS011;21464;48.112;11.530;2022-12-26T07:52:19;1.43;;;1.33;;
35364;SDS011;21464;48.112;11.530;2022-12-26T07:54:46;1.13;;;1.13;;
35364;SDS011;21464;48.112;11.530;2022-12-26T07:57:12;2.47;;;1.40;;
35364;SDS011;21464;48.112;11.530;2022-12-26T07:59:37;1.50;;;1.40;;
35364;SDS011;21464;48.112;11.530;2022-12-26T08:02:03;1.60;;;1.50;;
35364;SDS011;21464;48.112;11.530;2022-12-26T08:04:30;1.47;;;1.37;;
35364;SDS011;21464;48.112;11.530;2022-12-26T08:06:56;1.63;;;1.53;;
35364;SDS011;21464;48.112;11.530;2022-12-26T08:09:22;1.73;;;1.50;;
35364;SDS011;21464;48.112;11.530;2022-12-26T08:11:48;2.67;;;2.40;;
35364;SDS011;21464;48.112;11.530;2022-12-26T08:14:14;2.67;;;2.30;;
35364;SDS011;21464;48.112;11.530;2022-12-26T08:16:43;2.10;;;1.90;;
35364;SDS011;21464;48.112;11.530;2022-12-26T08:19:09;4.40;;;4.03;;
35364;SDS011;21464;48.112;11.530;2022-12-26T08:21:35;2.40;;;2.20;;
35364;SDS011;21464;48.112;11.530;2022-12-26T08:24:01;3.67;;;2.50;;
35364;SDS011;21464;48.112;11.530;2022-12-26T08:26:27;2.40;;;2.20;;
35364;SDS011;21464;48.112;11.530;2022-12-26T08:28:54;3.57;;;1.73;;
35364;SDS011;21464;48.112;11.530;2022-12-26T08:31:20;1.80;;;1.70;;
35364;SDS011;21464;48.112;11.530;2022-12-26T08:33:46;2.10;;;2.00;;
35364;SDS011;21464;48.112;11.530;2022-12-26T08:36:13;1.77;;;1.67;;
35364;SDS011;21464;48.112;11.530;2022-12-26T08:38:41;1.70;;;1.60;;
35364;SDS011;21464;48.112;11.530;2022-12-26T08:41:07;1.80;;;1.70;;
35364;SDS011;21464;48.112;11.530;2022-12-26T08:43:33;1.80;;;1.70;;
35364;SDS011;21464;48.112;11.530;2022-12-26T08:46:04;2.70;;;1.80;;
35364;SDS011;21464;48.112;11.530;2022-12-26T08:48:30;1.70;;;1.60;;
35364;SDS011;21464;48.112;11.530;2022-12-26T08:50:58;1.83;;;1.73;;
35364;SDS011;21464;48.112;11.530;2022-12-26T08:53:25;2.03;;;1.83;;
35364;SDS011;21464;48.112;11.530;2022-12-26T08:55:53;1.93;;;1.73;;
35364;SDS011;21464;48.112;11.530;2022-12-26T08:58:19;2.17;;;2.03;;
35364;SDS011;21464;48.112;11.530;2022-12-26T09:00:46;2.10;;;1.90;;
35364;SDS011;21464;48.112;11.530;2022-12-26T09:03:13;1.58;;;1.48;;
35364;SDS011;21464;48.112;11.530;2022-12-26T09:05:40;2.40;;;1.90;;
35364;SDS011;21464;48.112;11.530;2022-12-26T09:08:08;3.17;;;2.00;;
35364;SDS011;21464;48.112;11.530;2022-12-26T09:10:36;2.40;;;2.20;;
35364;SDS011;21464;48.112;11.530;2022-12-26T09:13:02;2.90;;;2.58;;
35364;SDS011;21464;48.112;11.530;2022-12-26T09:15:28;2.30;;;2.10;;
35364;SDS011;21464;48.112;11.530;2022-12-26T09:17:54;3.13;;;2.65;;
35364;SDS011;21464;48.112;11.530;2022-12-26T09:20:19;1.70;;;1.60;;
35364;SDS011;21464;48.112;11.530;2022-12-26T09:22:46;2.50;;;2.30;;
35364;SDS011;21464;48.112;11.530;2022-12-26T09:25:15;2.37;;;2.17;;
35364;SDS011;21464;48.112;11.530;2022-12-26T09:27:41;2.55;;;2.35;;
35364;SDS011;21464;48.112;11.530;2022-12-26T09:30:07;4.50;;;1.80;;
35364;SDS011;21464;48.112;11.530;2022-12-26T09:32:33;3.00;;;2.10;;
35364;SDS011;21464;48.112;11.530;2022-12-26T09:35:00;2.70;;;2.00;;
35364;SDS011;21464;48.112;11.530;2022-12-26T09:37:26;2.93;;;2.03;;
35364;SDS011;21464;48.112;11.530;2022-12-26T09:39:52;3.25;;;2.83;;
35364;SDS011;21464;48.112;11.530;2022-12-26T09:47:35;3.67;;;2.60;;
35364;SDS011;21464;48.112;11.530;2022-12-26T09:55:18;3.90;;;3.10;;
35364;SDS011;21464;48.112;11.530;2022-12-26T09:57:45;3.50;;;2.75;;
35364;SDS011;21464;48.112;11.530;2022-12-26T10:00:16;1.92;;;1.83;;
35364;SDS011;21464;48.112;11.530;2022-12-26T10:02:46;2.70;;;2.45;;
35364;SDS011;21464;48.112;11.530;2022-12-26T10:05:14;4.55;;;3.53;;
35364;SDS011;21464;48.112;11.530;2022-12-26T10:07:45;7.53;;;5.60;;
35364;SDS011;21464;48.112;11.530;2022-12-26T10:10:13;2.97;;;2.78;;
35364;SDS011;21464;48.112;11.530;2022-12-26T10:13:05;1.75;;;1.65;;
35364;SDS011;21464;48.112;11.530;2022-12-26T10:18:17;1.70;;;1.58;;
35364;SDS011;21464;48.112;11.530;2022-12-26T10:23:31;3.25;;;1.55;;
35364;SDS011;21464;48.112;11.530;2022-12-26T10:26:03;1.23;;;1.23;;
35364;SDS011;21464;48.112;11.530;2022-12-26T10:28:35;1.88;;;1.48;;
35364;SDS011;21464;48.112;11.530;2022-12-26T10:31:03;1.25;;;1.23;;
35364;SDS011;21464;48.112;11.530;2022-12-26T10:33:50;1.25;;;1.23;;
35364;SDS011;21464;48.112;11.530;2022-12-26T10:36:21;1.95;;;1.20;;
35364;SDS011;21464;48.112;11.530;2022-12-26T10:38:51;1.30;;;1.20;;
35364;SDS011;21464;48.112;11.530;2022-12-26T10:41:22;0.93;;;0.93;;
35364;SDS011;21464;48.112;11.530;2022-12-26T10:43:48;1.27;;;1.10;;
35364;SDS011;21464;48.112;11.530;2022-12-26T10:48:55;1.10;;;1.10;;
35364;SDS011;21464;48.112;11.530;2022-12-26T10:51:22;1.30;;;1.20;;
35364;SDS011;21464;48.112;11.530;2022-12-26T10:53:50;1.08;;;1.08;;
35364;SDS011;21464;48.112;11.530;2022-12-26T10:56:16;1.17;;;1.08;;
35364;SDS011;21464;48.112;11.530;2022-12-26T10:58:43;1.13;;;1.08;;
35364;SDS011;21464;48.112;11.530;2022-12-26T11:03:58;1.45;;;1.33;;
35364;SDS011;21464;48.112;11.530;2022-12-26T11:06:26;1.48;;;1.38;;
35364;SDS011;21464;48.112;11.530;2022-12-26T11:08:53;2.63;;;1.30;;
35364;SDS011;21464;48.112;11.530;2022-12-26T11:11:20;1.45;;;1.35;;
35364;SDS011;21464;48.112;11.530;2022-12-26T11:13:57;1.70;;;1.60;;
35364;SDS011;21464;48.112;11.530;2022-12-26T11:16:31;2.15;;;1.55;;
35364;SDS011;21464;48.112;11.530;2022-12-26T11:18:58;2.15;;;1.50;;
35364;SDS011;21464;48.112;11.530;2022-12-26T11:21:25;1.52;;;1.42;;
35364;SDS011;21464;48.112;11.530;2022-12-26T11:23:52;1.25;;;1.20;;
35364;SDS011;21464;48.112;11.530;2022-12-26T11:26:36;2.38;;;1.17;;
35364;SDS011;21464;48.112;11.530;2022-12-26T11:29:06;1.30;;;1.20;;
35364;SDS011;21464;48.112;11.530;2022-12-26T11:31:32;1.38;;;1.38;;
35364;SDS011;21464;48.112;11.530;2022-12-26T11:33:59;1.73;;;1.33;;
35364;SDS011;21464;48.112;11.530;2022-12-26T11:36:27;1.50;;;1.40;;
35364;SDS011;21464;48.112;11.530;2022-12-26T11:38:55;1.30;;;1.20;;
35364;SDS011;21464;48.112;11.530;2022-12-26T11:44:04;1.85;;;1.20;;
35364;SDS011;21464;48.112;11.530;2022-12-26T11:46:40;2.38;;;1.48;;
35364;SDS011;21464;48.112;11.530;2022-12-26T11:49:13;1.30;;;1.30;;
35364;SDS011;21464;48.112;11.530;2022-12-26T11:51:42;1.02;;;1.02;;
35364;SDS011;21464;48.112;11.530;2022-12-26T11:54:21;1.38;;;1.30;;
35364;SDS011;21464;48.112;11.530;2022-12-26T11:56:47;1.20;;;1.10;;
35364;SDS011;21464;48.112;11.530;2022-12-26T11:59:21;1.50;;;1.40;;
35364;SDS011;21464;48.112;11.530;2022-12-26T12:01:49;1.60;;;1.23;;
35364;SDS011;21464;48.112;11.530;2022-12-26T12:04:33;1.42;;;1.30;;
35364;SDS011;21464;48.112;11.530;2022-12-26T12:07:05;1.48;;;1.38;;
35364;SDS011;21464;48.112;11.530;2022-12-26T12:09:37;1.50;;;1.40;;
35364;SDS011;21464;48.112;11.530;2022-12-26T12:19:29;1.30;;;1.20;;
35364;SDS011;21464;48.112;11.530;2022-12-26T12:27:38;1.88;;;1.77;;
35364;SDS011;21464;48.112;11.530;2022-12-26T12:32:42;2.53;;;1.67;;
35364;SDS011;21464;48.112;11.530;2022-12-26T12:35:23;2.10;;;1.73;;
35364;SDS011;21464;48.112;11.530;2022-12-26T12:51:23;5.33;;;4.00;;
35364;SDS011;21464;48.112;11.530;2022-12-26T12:59:23;3.08;;;2.45;;
35364;SDS011;21464;48.112;11.530;2022-12-26T13:01:53;3.40;;;3.10;;
35364;SDS011;21464;48.112;11.530;2022-12-26T13:04:25;4.70;;;3.47;;
35364;SDS011;21464;48.112;11.530;2022-12-26T13:07:04;5.07;;;3.50;;
35364;SDS011;21464;48.112;11.530;2022-12-26T13:09:42;5.60;;;3.10;;
35364;SDS011;21464;48.112;11.530;2022-12-26T13:12:17;3.87;;;2.90;;
35364;SDS011;21464;48.112;11.530;2022-12-26T13:14:51;5.17;;;3.27;;
35364;SDS011;21464;48.112;11.530;2022-12-26T13:17:55;4.75;;;4.25;;
35364;SDS011;21464;48.112;11.530;2022-12-26T13:20:28;5.30;;;3.90;;
35364;SDS011;21464;48.112;11.530;2022-12-26T13:22:57;5.70;;;3.90;;
35364;SDS011;21464;48.112;11.530;2022-12-26T13:25:48;5.33;;;4.03;;
35364;SDS011;21464;48.112;11.530;2022-12-26T13:28:16;5.70;;;5.03;;
35364;SDS011;21464;48.112;11.530;2022-12-26T13:30:44;5.22;;;4.07;;
35364;SDS011;21464;48.112;11.530;2022-12-26T13:33:16;7.97;;;4.73;;
35364;SDS011;21464;48.112;11.530;2022-12-26T13:38:14;6.20;;;4.50;;
35364;SDS011;21464;48.112;11.530;2022-12-26T13:40:44;5.20;;;4.20;;
35364;SDS011;21464;48.112;11.530;2022-12-26T13:45:58;4.97;;;4.47;;
35364;SDS011;21464;48.112;11.530;2022-12-26T13:50:58;5.67;;;4.00;;
35364;SDS011;21464;48.112;11.530;2022-12-26T13:55:57;3.27;;;3.00;;
35364;SDS011;21464;48.112;11.530;2022-12-26T14:03:43;5.70;;;3.13;;
35364;SDS011;21464;48.112;11.530;2022-12-26T14:25:01;6.30;;;4.00;;
35364;SDS011;21464;48.112;11.530;2022-12-26T14:27:34;5.23;;;3.47;;
35364;SDS011;21464;48.112;11.530;2022-12-26T14:35:26;4.20;;;3.80;;
35364;SDS011;21464;48.112;11.530;2022-12-26T14:40:39;4.63;;;3.80;;
35364;SDS011;21464;48.112;11.530;2022-12-26T14:43:29;5.27;;;3.80;;
35364;SDS011;21464;48.112;11.530;2022-12-26T14:45:56;4.70;;;4.20;;
35364;SDS011;21464;48.112;11.530;2022-12-26T14:50:50;6.40;;;4.53;;
35364;SDS011;21464;48.112;11.530;2022-12-26T15:00:56;4.53;;;3.87;;
35364;SDS011;21464;48.112;11.530;2022-12-26T15:13:41;5.70;;;3.93;;
35364;SDS011;21464;48.112;11.530;2022-12-26T15:21:53;5.33;;;3.33;;
35364;SDS011;21464;48.112;11.530;2022-12-26T15:24:32;5.70;;;4.27;;
35364;SDS011;21464;48.112;11.530;2022-12-26T15:32:15;3.30;;;3.00;;
35364;SDS011;21464;48.112;11.530;2022-12-26T15:39:47;2.23;;;2.03;;
35364;SDS011;21464;48.112;11.530;2022-12-26T15:55:15;3.47;;;1.83;;
35364;SDS011;21464;48.112;11.530;2022-12-26T16:00:46;1.40;;;1.30;;
35364;SDS011;21464;48.112;11.530;2022-12-26T16:03:16;1.63;;;1.53;;
35364;SDS011;21464;48.112;11.530;2022-12-26T16:05:51;1.63;;;1.40;;
35364;SDS011;21464;48.112;11.530;2022-12-26T16:08:27;1.60;;;1.50;;
35364;SDS011;21464;48.112;11.530;2022-12-26T16:11:12;1.57;;;1.13;;
35364;SDS011;21464;48.112;11.530;2022-12-26T16:13:52;1.30;;;1.23;;
35364;SDS011;21464;48.112;11.530;2022-12-26T16:16:22;1.10;;;1.00;;
35364;SDS011;21464;48.112;11.530;2022-12-26T16:18:48;3.03;;;2.00;;
35364;SDS011;21464;48.112;11.530;2022-12-26T16:21:14;1.30;;;1.20;;
35364;SDS011;21464;48.112;11.530;2022-12-26T16:24:00;1.40;;;1.30;;
35364;SDS011;21464;48.112;11.530;2022-12-26T16:26:28;1.40;;;1.30;;
35364;SDS011;21464;48.112;11.530;2022-12-26T16:28:55;1.10;;;1.10;;
35364;SDS011;21464;48.112;11.530;2022-12-26T16:31:23;3.43;;;1.20;;
35364;SDS011;21464;48.112;11.530;2022-12-26T16:33:50;0.80;;;0.80;;
35364;SDS011;21464;48.112;11.530;2022-12-26T16:36:19;0.80;;;0.80;;
35364;SDS011;21464;48.112;11.530;2022-12-26T16:38:45;2.10;;;1.47;;
35364;SDS011;21464;48.112;11.530;2022-12-26T16:43:43;1.87;;;1.77;;
35364;SDS011;21464;48.112;11.530;2022-12-26T16:46:10;0.90;;;0.90;;
35364;SDS011;21464;48.112;11.530;2022-12-26T16:48:36;1.23;;;1.00;;
35364;SDS011;21464;48.112;11.530;2022-12-26T16:51:04;0.83;;;0.83;;
35364;SDS011;21464;48.112;11.530;2022-12-26T16:56:32;0.90;;;0.90;;
35364;SDS011;21464;48.112;11.530;2022-12-26T16:59:35;1.03;;;1.03;;
35364;SDS011;21464;48.112;11.530;2022-12-26T17:01:40;0.80;;;0.80;;
35364;SDS011;21464;48.112;11.530;2022-12-26T17:04:28;0.97;;;0.97;;
35364;SDS011;21464;48.112;11.530;2022-12-26T17:09:22;1.27;;;1.00;;
35364;SDS011;21464;48.112;11.530;2022-12-26T17:14:37;1.20;;;1.20;;
35364;SDS011;21464;48.112;11.530;2022-12-26T17:17:06;1.30;;;1.20;;
35364;SDS011;21464;48.112;11.530;2022-12-26T17:19:33;1.60;;;0.83;;
35364;SDS011;21464;48.112;11.530;2022-12-26T17:24:45;0.83;;;0.83;;
35364;SDS011;21464;48.112;11.530;2022-12-26T17:27:25;2.40;;;1.30;;
35364;SDS011;21464;48.112;11.530;2022-12-26T17:30:00;1.30;;;1.20;;
35364;SDS011;21464;48.112;11.530;2022-12-26T17:32:43;1.20;;;1.20;;
35364;SDS011;21464;48.112;11.530;2022-12-26T17:35:13;2.13;;;1.80;;
35364;SDS011;21464;48.112;11.530;2022-12-26T17:37:39;1.70;;;1.60;;
35364;SDS011;21464;48.112;11.530;2022-12-26T17:40:18;2.30;;;1.70;;
35364;SDS011;21464;48.112;11.530;2022-12-26T17:42:46;1.53;;;1.43;;
35364;SDS011;21464;48.112;11.530;2022-12-26T17:45:17;2.33;;;1.53;;
35364;SDS011;21464;48.112;11.530;2022-12-26T17:47:43;2.37;;;1.60;;
35364;SDS011;21464;48.112;11.530;2022-12-26T17:50:09;2.17;;;1.40;;
35364;SDS011;21464;48.112;11.530;2022-12-26T17:52:35;1.50;;;1.40;;
35364;SDS011;21464;48.112;11.530;2022-12-26T17:55:02;1.67;;;1.40;;
35364;SDS011;21464;48.112;11.530;2022-12-26T17:57:28;1.33;;;0.90;;
35364;SDS011;21464;48.112;11.530;2022-12-26T17:59:54;1.93;;;1.50;;
35364;SDS011;21464;48.112;11.530;2022-12-26T18:02:21;1.63;;;1.53;;
35364;SDS011;21464;48.112;11.530;2022-12-26T18:04:47;1.37;;;1.20;;
35364;SDS011;21464;48.112;11.530;2022-12-26T18:07:17;1.50;;;1.40;;
35364;SDS011;21464;48.112;11.530;2022-12-26T18:09:43;0.70;;;0.70;;
35364;SDS011;21464;48.112;11.530;2022-12-26T18:12:13;1.13;;;1.03;;
35364;SDS011;21464;48.112;11.530;2022-12-26T18:14:39;1.30;;;1.20;;
35364;SDS011;21464;48.112;11.530;2022-12-26T18:17:06;1.50;;;1.40;;
35364;SDS011;21464;48.112;11.530;2022-12-26T18:19:32;2.40;;;1.30;;
35364;SDS011;21464;48.112;11.530;2022-12-26T18:21:59;0.80;;;0.80;;
35364;SDS011;21464;48.112;11.530;2022-12-26T18:24:25;1.00;;;0.90;;
35364;SDS011;21464;48.112;11.530;2022-12-26T18:26:51;1.30;;;1.30;;